^^
Saratoga-Weather Station Historical Data
Daily Summary for January 25, 2022 Units:  Metric    English   Both
Daily Weekly Monthly Yearly Custom
  High: Low: Average:
Temperature: 0.2 °C -1.7 °C -0.8 °C
Dew Point: -0.2 °C -2.4 °C -1.3 °C
Humidity: 97% 94% 96%
Wind Speed: 6.4km/h 0km/h 0.9km/h
Wind Gust: 8km/h - -
Wind- - SSE
Pressure: 1033.5 hPa 1032.2 hPa -
Precipitation: 0.0 mm    
Historical Graphs
 
 
Tabular Data for January 25, 2022
Time Temperature Dew Point Pressure Wind Wind Speed Wind Gust Humidity Rainfall Rate (Hourly) solar
00:04 -0.9 °C -1.6 °C 1032.8 hPa Calm     95% 0.0 mm 0 W/m2
00:09 -1 °C -1.7 °C 1032.8 hPa Calm     95% 0.0 mm 0 W/m2
00:14 -1.1 °C -1.9 °C 1032.8 hPa Calm     94% 0.0 mm 0 W/m2
00:19 -1.1 °C -1.8 °C 1032.8 hPa Calm     95% 0.0 mm 0 W/m2
00:24 -1 °C -1.7 °C 1032.8 hPa Calm     95% 0.0 mm 0 W/m2
00:29 -1 °C -1.7 °C 1032.8 hPa Calm     95% 0.0 mm 0 W/m2
00:34 -1.1 °C -1.8 °C 1032.8 hPa Calm     95% 0.0 mm 0 W/m2
00:39 -1.1 °C -1.8 °C 1032.8 hPa Calm     95% 0.0 mm 0 W/m2
00:44 -1.2 °C -1.9 °C 1032.8 hPa Calm     95% 0.0 mm 0 W/m2
00:49 -1.2 °C -1.9 °C 1032.8 hPa Calm     95% 0.0 mm 0 W/m2
00:54 -1.2 °C -1.9 °C 1032.8 hPa Calm     95% 0.0 mm 0 W/m2
00:59 -1.2 °C -1.9 °C 1032.8 hPa Calm     95% 0.0 mm 0 W/m2
01:04 -1.2 °C -1.9 °C 1032.8 hPa Calm     95% 0.0 mm 0 W/m2
01:09 -1.3 °C -2 °C 1032.8 hPa Calm     95% 0.0 mm 0 W/m2
01:14 -1.4 °C -2.1 °C 1032.8 hPa Calm     95% 0.0 mm 0 W/m2
01:19 -1.4 °C -2.1 °C 1032.8 hPa Calm     95% 0.0 mm 0 W/m2
01:24 -1.5 °C -2.2 °C 1032.8 hPa Calm     95% 0.0 mm 0 W/m2
01:29 -1.6 °C -2.3 °C 1032.8 hPa Calm     95% 0.0 mm 0 W/m2
01:34 -1.6 °C -2.3 °C 1032.8 hPa Calm     95% 0.0 mm 0 W/m2
01:40 -1.6 °C -2.3 °C 1032.8 hPa Calm     95% 0.0 mm 0 W/m2
01:45 -1.6 °C -2.3 °C 1032.8 hPa Calm     95% 0.0 mm 0 W/m2
01:50 -1.6 °C -2.3 °C 1032.8 hPa Calm     95% 0.0 mm 0 W/m2
01:55 -1.6 °C -2.3 °C 1032.8 hPa Calm     95% 0.0 mm 0 W/m2
02:00 -1.6 °C -2.3 °C 1032.8 hPa Calm     95% 0.0 mm 0 W/m2
02:05 -1.5 °C -2.2 °C 1032.8 hPa Calm     95% 0.0 mm 0 W/m2
02:10 -1.4 °C -2.1 °C 1032.8 hPa Calm   1.6 km/h 95% 0.0 mm 0 W/m2
02:15 -1.2 °C -1.9 °C 1032.8 hPa Calm   1.6 km/h 95% 0.0 mm 0 W/m2
02:20 -1.2 °C -1.9 °C 1032.8 hPa Calm     95% 0.0 mm 0 W/m2
02:25 -1.2 °C -1.9 °C 1032.8 hPa Calm   1.6 km/h 95% 0.0 mm 0 W/m2
02:30 -1.2 °C -1.9 °C 1032.8 hPa Calm     95% 0.0 mm 0 W/m2
02:35 -1.3 °C -2 °C 1032.8 hPa Calm     95% 0.0 mm 0 W/m2
02:40 -1.4 °C -2.1 °C 1032.8 hPa Calm     95% 0.0 mm 0 W/m2
02:45 -1.4 °C -2.1 °C 1032.8 hPa Calm     95% 0.0 mm 0 W/m2
02:50 -1.5 °C -2.2 °C 1032.8 hPa Calm     95% 0.0 mm 0 W/m2
02:55 -1.4 °C -2.1 °C 1033.2 hPa Calm     95% 0.0 mm 0 W/m2
03:00 -1.4 °C -2.1 °C 1033.2 hPa East 1.4 km/h 3.2 km/h 95% 0.0 mm 0 W/m2
03:05 -1.4 °C -2.1 °C 1033.2 hPa Calm   1.6 km/h 95% 0.0 mm 0 W/m2
03:10 -1.4 °C -2.1 °C 1033.2 hPa Calm   3.2 km/h 95% 0.0 mm 0 W/m2
03:15 -1.5 °C -2.2 °C 1033.2 hPa Calm   1.6 km/h 95% 0.0 mm 0 W/m2
03:20 -1.6 °C -2.3 °C 1033.2 hPa ESE 1.4 km/h 3.2 km/h 95% 0.0 mm 0 W/m2
03:25 -1.6 °C -2.3 °C 1033.2 hPa Calm   1.6 km/h 95% 0.0 mm 0 W/m2
03:30 -1.6 °C -2.3 °C 1033.2 hPa ESE 3.2 km/h 4.8 km/h 95% 0.0 mm 0 W/m2
03:35 -1.6 °C -2.3 °C 1033.2 hPa ENE 3.2 km/h 4.8 km/h 95% 0.0 mm 0 W/m2
03:40 -1.6 °C -2.3 °C 1033.2 hPa Calm   3.2 km/h 95% 0.0 mm 0 W/m2
03:45 -1.7 °C -2.4 °C 1033.2 hPa Calm     95% 0.0 mm 0 W/m2
03:50 -1.7 °C -2.4 °C 1033.2 hPa Calm   1.6 km/h 95% 0.0 mm 0 W/m2
03:55 -1.7 °C -2.4 °C 1033.2 hPa East 3.2 km/h 4.8 km/h 95% 0.0 mm 0 W/m2
04:00 -1.7 °C -2.4 °C 1033.2 hPa Calm   3.2 km/h 95% 0.0 mm 0 W/m2
04:05 -1.7 °C -2.3 °C 1033.2 hPa Calm   3.2 km/h 96% 0.0 mm 0 W/m2
04:10 -1.7 °C -2.4 °C 1033.2 hPa Calm     95% 0.0 mm 0 W/m2
04:15 -1.7 °C -2.3 °C 1033.2 hPa East 1.4 km/h 1.6 km/h 96% 0.0 mm 0 W/m2
04:20 -1.6 °C -2.2 °C 1033.2 hPa Calm   3.2 km/h 96% 0.0 mm 0 W/m2
04:25 -1.6 °C -2.2 °C 1033.2 hPa Calm   3.2 km/h 96% 0.0 mm 0 W/m2
04:30 -1.6 °C -2.2 °C 1033.2 hPa Calm   3.2 km/h 96% 0.0 mm 0 W/m2
04:35 -1.6 °C -2.2 °C 1033.2 hPa Calm   1.6 km/h 96% 0.0 mm 0 W/m2
04:40 -1.6 °C -2.2 °C 1033.2 hPa NE 1.4 km/h 1.6 km/h 96% 0.0 mm 0 W/m2
04:45 -1.5 °C -2.1 °C 1033.2 hPa Calm   3.2 km/h 96% 0.0 mm 0 W/m2
04:50 -1.4 °C -2 °C 1033.2 hPa Calm   1.6 km/h 96% 0.0 mm 0 W/m2
04:55 -1.4 °C -2 °C 1033.2 hPa Calm   1.6 km/h 96% 0.0 mm 0 W/m2
05:00 -1.4 °C -2 °C 1033.2 hPa Calm     96% 0.0 mm 0 W/m2
05:05 -1.3 °C -1.9 °C 1032.8 hPa Calm     96% 0.0 mm 0 W/m2
05:10 -1.3 °C -1.9 °C 1032.8 hPa Calm   1.6 km/h 96% 0.0 mm 0 W/m2
05:15 -1.3 °C -1.9 °C 1032.8 hPa North 1.4 km/h 3.2 km/h 96% 0.0 mm 0 W/m2
05:20 -1.3 °C -1.9 °C 1032.8 hPa Calm     96% 0.0 mm 0 W/m2
05:25 -1.3 °C -1.9 °C 1032.8 hPa Calm   3.2 km/h 96% 0.0 mm 0 W/m2
05:30 -1.3 °C -1.9 °C 1032.8 hPa East 3.2 km/h 3.2 km/h 96% 0.0 mm 0 W/m2
05:35 -1.3 °C -1.9 °C 1032.8 hPa Calm     96% 0.0 mm 0 W/m2
05:40 -1.3 °C -1.9 °C 1032.8 hPa ESE 1.4 km/h 1.6 km/h 96% 0.0 mm 0 W/m2
05:45 -1.3 °C -1.9 °C 1032.8 hPa ENE 1.4 km/h 3.2 km/h 96% 0.0 mm 0 W/m2
05:50 -1.3 °C -1.9 °C 1032.8 hPa Calm   1.6 km/h 96% 0.0 mm 0 W/m2
05:55 -1.3 °C -1.9 °C 1032.8 hPa Calm     96% 0.0 mm 0 W/m2
06:00 -1.3 °C -1.9 °C 1032.8 hPa Calm   1.6 km/h 96% 0.0 mm 0 W/m2
06:05 -1.3 °C -1.9 °C 1032.8 hPa NE 3.2 km/h 3.2 km/h 96% 0.0 mm 0 W/m2
06:10 -1.3 °C -1.9 °C 1032.8 hPa Calm   1.6 km/h 96% 0.0 mm 0 W/m2
06:16 -1.3 °C -1.9 °C 1032.8 hPa Calm   1.6 km/h 96% 0.0 mm 0 W/m2
06:21 -1.3 °C -1.9 °C 1032.5 hPa NE 1.4 km/h 1.6 km/h 96% 0.0 mm 0 W/m2
06:26 -1.3 °C -1.9 °C 1032.8 hPa NE 3.2 km/h 3.2 km/h 96% 0.0 mm 0 W/m2
06:31 -1.3 °C -1.9 °C 1032.8 hPa Calm   1.6 km/h 96% 0.0 mm 0 W/m2
06:36 -1.3 °C -1.9 °C 1032.8 hPa Calm     96% 0.0 mm 0 W/m2
06:41 -1.3 °C -1.9 °C 1032.8 hPa East 3.2 km/h 3.2 km/h 96% 0.0 mm 0 W/m2
06:46 -1.2 °C -1.8 °C 1032.8 hPa NE 1.4 km/h 3.2 km/h 96% 0.0 mm 0 W/m2
06:51 -1.2 °C -1.8 °C 1032.8 hPa East 1.4 km/h 3.2 km/h 96% 0.0 mm 0 W/m2
06:56 -1.3 °C -1.9 °C 1032.8 hPa Calm     96% 0.0 mm 0 W/m2
07:01 -1.3 °C -1.9 °C 1032.5 hPa Calm   1.6 km/h 96% 0.0 mm 0 W/m2
07:06 -1.3 °C -1.9 °C 1032.8 hPa ESE 1.4 km/h 4.8 km/h 96% 0.0 mm 0 W/m2
07:11 -1.4 °C -2 °C 1032.8 hPa Calm   1.6 km/h 96% 0.0 mm 0 W/m2
07:16 -1.4 °C -2 °C 1032.8 hPa Calm   1.6 km/h 96% 0.0 mm 0 W/m2
07:21 -1.4 °C -2 °C 1032.5 hPa Calm   1.6 km/h 96% 0.0 mm 0 W/m2
07:26 -1.4 °C -2 °C 1032.5 hPa ENE 1.4 km/h 3.2 km/h 96% 0.0 mm 0 W/m2
07:31 -1.4 °C -2 °C 1032.8 hPa Calm   3.2 km/h 96% 0.0 mm 0 W/m2
07:36 -1.4 °C -2 °C 1032.8 hPa Calm   1.6 km/h 96% 0.0 mm 0 W/m2
07:41 -1.4 °C -2 °C 1032.8 hPa Calm     96% 0.0 mm 0 W/m2
07:46 -1.3 °C -1.9 °C 1032.8 hPa NE 1.4 km/h 3.2 km/h 96% 0.0 mm 0 W/m2
07:51 -1.3 °C -1.9 °C 1032.8 hPa Calm   3.2 km/h 96% 0.0 mm 0 W/m2
07:56 -1.3 °C -1.9 °C 1032.8 hPa Calm     96% 0.0 mm 0 W/m2
08:01 -1.3 °C -1.9 °C 1032.8 hPa Calm   3.2 km/h 96% 0.0 mm 0 W/m2
08:06 -1.3 °C -1.9 °C 1032.8 hPa Calm     96% 0.0 mm 0 W/m2
08:11 -1.3 °C -1.9 °C 1032.8 hPa Calm   1.6 km/h 96% 0.0 mm 0 W/m2
08:16 -1.2 °C -1.8 °C 1032.8 hPa Calm   1.6 km/h 96% 0.0 mm 0 W/m2
08:21 -1.3 °C -1.9 °C 1032.8 hPa Calm     96% 0.0 mm 0 W/m2
08:26 -1.3 °C -1.9 °C 1032.8 hPa Calm   1.6 km/h 96% 0.0 mm 0 W/m2
08:31 -1.2 °C -1.8 °C 1032.8 hPa Calm     96% 0.0 mm 0 W/m2
08:36 -1.3 °C -1.9 °C 1032.8 hPa Calm   3.2 km/h 96% 0.0 mm 5 W/m2
08:41 -1.3 °C -1.9 °C 1032.8 hPa Calm   1.6 km/h 96% 0.0 mm 5 W/m2
08:46 -1.3 °C -1.9 °C 1032.8 hPa Calm     96% 0.0 mm 7 W/m2
08:51 -1.3 °C -1.9 °C 1032.8 hPa Calm     96% 0.0 mm 9 W/m2
08:56 -1.3 °C -1.9 °C 1032.8 hPa Calm     96% 0.0 mm 11 W/m2
09:01 -1.3 °C -1.9 °C 1032.8 hPa Calm     96% 0.0 mm 12 W/m2
09:06 -1.3 °C -1.9 °C 1032.8 hPa Calm     96% 0.0 mm 12 W/m2
09:11 -1.3 °C -1.9 °C 1032.8 hPa Calm     96% 0.0 mm 16 W/m2
09:16 -1.2 °C -1.8 °C 1032.8 hPa NE 1.4 km/h 1.6 km/h 96% 0.0 mm 18 W/m2
09:21 -1.2 °C -1.8 °C 1032.8 hPa NE 1.4 km/h 3.2 km/h 96% 0.0 mm 18 W/m2
09:26 -1.2 °C -1.8 °C 1032.8 hPa Calm     96% 0.0 mm 21 W/m2
09:31 -1.1 °C -1.7 °C 1032.8 hPa Calm   1.6 km/h 96% 0.0 mm 23 W/m2
09:36 -1.1 °C -1.7 °C 1033.2 hPa North 1.4 km/h 3.2 km/h 96% 0.0 mm 23 W/m2
09:41 -1.1 °C -1.7 °C 1033.2 hPa Calm   1.6 km/h 96% 0.0 mm 23 W/m2
09:46 -1.1 °C -1.7 °C 1033.2 hPa Calm   1.6 km/h 96% 0.0 mm 26 W/m2
09:51 -1.1 °C -1.7 °C 1033.2 hPa NNE 1.4 km/h 3.2 km/h 96% 0.0 mm 30 W/m2
09:56 -1.1 °C -1.7 °C 1033.2 hPa Calm     96% 0.0 mm 33 W/m2
10:01 -1 °C -1.6 °C 1033.2 hPa Calm   3.2 km/h 96% 0.0 mm 33 W/m2
10:06 -1 °C -1.6 °C 1033.2 hPa Calm   3.2 km/h 96% 0.0 mm 33 W/m2
10:11 -0.9 °C -1.3 °C 1033.2 hPa Calm   1.6 km/h 97% 0.0 mm 37 W/m2
10:16 -0.9 °C -1.3 °C 1032.8 hPa ENE 1.4 km/h 3.2 km/h 97% 0.0 mm 40 W/m2
10:21 -0.9 °C -1.3 °C 1032.8 hPa Calm   3.2 km/h 97% 0.0 mm 42 W/m2
10:26 -0.9 °C -1.3 °C 1033.2 hPa Calm     97% 0.0 mm 39 W/m2
10:31 -0.9 °C -1.3 °C 1033.2 hPa Calm   3.2 km/h 97% 0.0 mm 42 W/m2
10:36 -0.9 °C -1.5 °C 1033.2 hPa Calm     96% 0.0 mm 46 W/m2
10:41 -0.9 °C -1.3 °C 1033.2 hPa Calm     97% 0.0 mm 47 W/m2
10:46 -0.8 °C -1.2 °C 1033.2 hPa Calm   1.6 km/h 97% 0.0 mm 49 W/m2
10:51 -0.8 °C -1.2 °C 1033.2 hPa Calm     97% 0.0 mm 54 W/m2
10:56 -0.8 °C -1.4 °C 1033.2 hPa Calm   1.6 km/h 96% 0.0 mm 51 W/m2
11:01 -0.7 °C -1.3 °C 1033.2 hPa Calm     96% 0.0 mm 49 W/m2
11:06 -0.7 °C -1.3 °C 1033.2 hPa ENE 1.4 km/h 1.6 km/h 96% 0.0 mm 56 W/m2
11:11 -0.7 °C -1.3 °C 1033.5 hPa Calm     96% 0.0 mm 56 W/m2
11:16 -0.7 °C -1.3 °C 1033.5 hPa Calm     96% 0.0 mm 62 W/m2
11:21 -0.6 °C -1 °C 1033.5 hPa ENE 1.4 km/h 3.2 km/h 97% 0.0 mm 70 W/m2
11:26 -0.6 °C -1 °C 1033.5 hPa East 1.4 km/h 4.8 km/h 97% 0.0 mm 79 W/m2
11:31 -0.6 °C -1 °C 1033.5 hPa ESE 3.2 km/h 6.4 km/h 97% 0.0 mm 81 W/m2
11:36 -0.6 °C -1 °C 1033.5 hPa ESE 1.4 km/h 3.2 km/h 97% 0.0 mm 79 W/m2
11:41 -0.6 °C -1 °C 1033.5 hPa ESE 1.4 km/h 6.4 km/h 97% 0.0 mm 76 W/m2
11:46 -0.6 °C -1 °C 1033.5 hPa Calm   3.2 km/h 97% 0.0 mm 77 W/m2
11:51 -0.6 °C -1 °C 1033.5 hPa Calm     97% 0.0 mm 76 W/m2
11:56 -0.5 °C -0.9 °C 1033.2 hPa ESE 1.4 km/h 3.2 km/h 97% 0.0 mm 77 W/m2
12:01 -0.4 °C -0.8 °C 1033.2 hPa ESE 3.2 km/h 3.2 km/h 97% 0.0 mm 76 W/m2
12:06 -0.4 °C -0.8 °C 1033.2 hPa ESE 3.2 km/h 4.8 km/h 97% 0.0 mm 72 W/m2
12:11 -0.4 °C -0.8 °C 1033.2 hPa Calm     97% 0.0 mm 74 W/m2
12:17 -0.4 °C -0.8 °C 1033.2 hPa Calm     97% 0.0 mm 70 W/m2
12:22 -0.3 °C -0.7 °C 1033.2 hPa East 3.2 km/h 3.2 km/h 97% 0.0 mm 74 W/m2
12:27 -0.3 °C -0.7 °C 1033.2 hPa Calm     97% 0.0 mm 74 W/m2
12:32 -0.3 °C -0.7 °C 1032.8 hPa Calm   4.8 km/h 97% 0.0 mm 69 W/m2
12:37 -0.2 °C -0.6 °C 1033.2 hPa East 1.4 km/h 4.8 km/h 97% 0.0 mm 69 W/m2
12:42 -0.3 °C -0.7 °C 1032.8 hPa Calm   1.6 km/h 97% 0.0 mm 70 W/m2
12:47 -0.3 °C -0.7 °C 1032.8 hPa ENE 1.4 km/h 1.6 km/h 97% 0.0 mm 69 W/m2
12:52 -0.2 °C -0.6 °C 1032.8 hPa ESE 1.4 km/h 3.2 km/h 97% 0.0 mm 70 W/m2
12:57 -0.2 °C -0.6 °C 1032.8 hPa ESE 1.4 km/h 3.2 km/h 97% 0.0 mm 69 W/m2
13:02 -0.2 °C -0.6 °C 1032.8 hPa Calm     97% 0.0 mm 70 W/m2
13:07 -0.2 °C -0.6 °C 1032.8 hPa Calm     97% 0.0 mm 69 W/m2
13:12 -0.2 °C -0.6 °C 1032.8 hPa Calm   1.6 km/h 97% 0.0 mm 69 W/m2
13:17 -0.2 °C -0.6 °C 1032.8 hPa Calm     97% 0.0 mm 69 W/m2
13:22 -0.1 °C -0.5 °C 1032.8 hPa ESE 3.2 km/h 3.2 km/h 97% 0.0 mm 69 W/m2
13:27 -0.1 °C -0.5 °C 1032.8 hPa ESE 3.2 km/h 4.8 km/h 97% 0.0 mm 74 W/m2
13:32 -0.1 °C -0.5 °C 1032.8 hPa Calm   1.6 km/h 97% 0.0 mm 69 W/m2
13:37 -0.1 °C -0.5 °C 1032.8 hPa Calm   1.6 km/h 97% 0.0 mm 65 W/m2
13:42 -0.1 °C -0.5 °C 1032.8 hPa ESE 1.4 km/h 3.2 km/h 97% 0.0 mm 63 W/m2
13:47 -0.1 °C -0.5 °C 1032.8 hPa Calm     97% 0.0 mm 54 W/m2
13:52 0 °C -0.4 °C 1032.8 hPa Calm   3.2 km/h 97% 0.0 mm 51 W/m2
13:57 0 °C -0.4 °C 1032.8 hPa ENE 4.8 km/h 4.8 km/h 97% 0.0 mm 53 W/m2
14:02 0 °C -0.4 °C 1032.8 hPa Calm   1.6 km/h 97% 0.0 mm 49 W/m2
14:07 0 °C -0.4 °C 1032.5 hPa Calm   1.6 km/h 97% 0.0 mm 51 W/m2
14:12 0 °C -0.4 °C 1032.5 hPa Calm   4.8 km/h 97% 0.0 mm 49 W/m2
14:17 -0.1 °C -0.5 °C 1032.5 hPa ENE 1.4 km/h 3.2 km/h 97% 0.0 mm 49 W/m2
14:22 -0.1 °C -0.5 °C 1032.5 hPa ENE 3.2 km/h 4.8 km/h 97% 0.0 mm 46 W/m2
14:27 0 °C -0.4 °C 1032.5 hPa Calm   3.2 km/h 97% 0.0 mm 49 W/m2
14:32 0 °C -0.4 °C 1032.5 hPa Calm   1.6 km/h 97% 0.0 mm 51 W/m2
14:37 0.1 °C -0.3 °C 1032.5 hPa ENE 1.4 km/h 3.2 km/h 97% 0.0 mm 53 W/m2
14:42 0.1 °C -0.3 °C 1032.2 hPa Calm     97% 0.0 mm 53 W/m2
14:47 0.1 °C -0.3 °C 1032.2 hPa Calm   3.2 km/h 97% 0.0 mm 51 W/m2
14:52 0.1 °C -0.3 °C 1032.2 hPa Calm   1.6 km/h 97% 0.0 mm 49 W/m2
14:57 0.1 °C -0.3 °C 1032.5 hPa ENE 3.2 km/h 3.2 km/h 97% 0.0 mm 46 W/m2
15:02 0.1 °C -0.3 °C 1032.5 hPa Calm     97% 0.0 mm 49 W/m2
15:07 0.1 °C -0.3 °C 1032.5 hPa Calm     97% 0.0 mm 42 W/m2
15:12 0.1 °C -0.3 °C 1032.2 hPa Calm     97% 0.0 mm 37 W/m2
15:17 0.1 °C -0.3 °C 1032.5 hPa Calm   1.6 km/h 97% 0.0 mm 39 W/m2
15:22 0.2 °C -0.2 °C 1032.5 hPa Calm     97% 0.0 mm 37 W/m2
15:27 0.2 °C -0.2 °C 1032.5 hPa SE 1.4 km/h 3.2 km/h 97% 0.0 mm 33 W/m2
15:32 0.2 °C -0.2 °C 1032.5 hPa Calm     97% 0.0 mm 30 W/m2
15:37 0.2 °C -0.2 °C 1032.2 hPa SE 3.2 km/h 3.2 km/h 97% 0.0 mm 26 W/m2
15:42 0.2 °C -0.2 °C 1032.5 hPa Calm   1.6 km/h 97% 0.0 mm 23 W/m2
15:47 0.2 °C -0.2 °C 1032.5 hPa East 1.4 km/h 3.2 km/h 97% 0.0 mm 25 W/m2
15:52 0.2 °C -0.2 °C 1032.5 hPa ENE 1.4 km/h 4.8 km/h 97% 0.0 mm 23 W/m2
15:57 0.1 °C -0.3 °C 1032.5 hPa ENE 1.4 km/h 3.2 km/h 97% 0.0 mm 21 W/m2
16:02 0.1 °C -0.3 °C 1032.5 hPa Calm     97% 0.0 mm 21 W/m2
16:07 0.1 °C -0.3 °C 1032.5 hPa NE 1.4 km/h 1.6 km/h 97% 0.0 mm 18 W/m2
16:12 0.1 °C -0.3 °C 1032.5 hPa Calm     97% 0.0 mm 16 W/m2
16:17 0.1 °C -0.3 °C 1032.5 hPa Calm     97% 0.0 mm 16 W/m2
16:22 0.1 °C -0.3 °C 1032.5 hPa NE 4.7 km/h 4.8 km/h 97% 0.0 mm 14 W/m2
16:27 0 °C -0.4 °C 1032.5 hPa NE 1.4 km/h 3.2 km/h 97% 0.0 mm 12 W/m2
16:32 -0.1 °C -0.5 °C 1032.5 hPa ENE 1.4 km/h 4.8 km/h 97% 0.0 mm 11 W/m2
16:37 -0.1 °C -0.5 °C 1032.8 hPa ENE 3.2 km/h 4.8 km/h 97% 0.0 mm 9 W/m2
16:42 -0.2 °C -0.6 °C 1032.5 hPa ENE 3.2 km/h 4.8 km/h 97% 0.0 mm 7 W/m2
16:48 -0.2 °C -0.6 °C 1032.5 hPa East 3.2 km/h 6.4 km/h 97% 0.0 mm 7 W/m2
16:53 -0.2 °C -0.6 °C 1032.5 hPa ESE 3.2 km/h 4.8 km/h 97% 0.0 mm 5 W/m2
16:58 -0.2 °C -0.6 °C 1032.5 hPa East 1.4 km/h 6.4 km/h 97% 0.0 mm 5 W/m2
17:03 -0.3 °C -0.7 °C 1032.5 hPa Calm   3.2 km/h 97% 0.0 mm 0 W/m2
17:08 -0.3 °C -0.7 °C 1032.5 hPa Calm   3.2 km/h 97% 0.0 mm 0 W/m2
17:13 -0.3 °C -0.7 °C 1032.2 hPa ESE 1.4 km/h 3.2 km/h 97% 0.0 mm 0 W/m2
17:18 -0.4 °C -0.8 °C 1032.5 hPa Calm     97% 0.0 mm 0 W/m2
17:23 -0.4 °C -0.8 °C 1032.5 hPa Calm     97% 0.0 mm 0 W/m2
17:28 -0.4 °C -0.8 °C 1032.5 hPa Calm     97% 0.0 mm 0 W/m2
17:33 -0.4 °C -0.8 °C 1032.5 hPa ESE 1.4 km/h 3.2 km/h 97% 0.0 mm 0 W/m2
17:38 -0.4 °C -0.8 °C 1032.5 hPa Calm   4.8 km/h 97% 0.0 mm 0 W/m2
17:43 -0.4 °C -0.8 °C 1032.5 hPa Calm     97% 0.0 mm 0 W/m2
17:48 -0.4 °C -0.8 °C 1032.5 hPa ENE 1.4 km/h 4.8 km/h 97% 0.0 mm 0 W/m2
17:53 -0.5 °C -0.9 °C 1032.5 hPa Calm   1.6 km/h 97% 0.0 mm 0 W/m2
17:58 -0.4 °C -0.8 °C 1032.5 hPa Calm     97% 0.0 mm 0 W/m2
18:03 -0.4 °C -0.8 °C 1032.8 hPa ENE 3.2 km/h 3.2 km/h 97% 0.0 mm 0 W/m2
18:08 -0.4 °C -0.8 °C 1032.8 hPa Calm     97% 0.0 mm 0 W/m2
18:13 -0.4 °C -0.8 °C 1032.5 hPa East 4.7 km/h 4.8 km/h 97% 0.0 mm 0 W/m2
18:18 -0.4 °C -0.8 °C 1032.8 hPa East 1.4 km/h 3.2 km/h 97% 0.0 mm 0 W/m2
18:23 -0.4 °C -0.8 °C 1032.8 hPa ENE 1.4 km/h 3.2 km/h 97% 0.0 mm 0 W/m2
18:28 -0.4 °C -0.8 °C 1032.8 hPa Calm     97% 0.0 mm 0 W/m2
18:33 -0.4 °C -0.8 °C 1032.8 hPa Calm   1.6 km/h 97% 0.0 mm 0 W/m2
18:38 -0.4 °C -0.8 °C 1032.8 hPa East 1.4 km/h 3.2 km/h 97% 0.0 mm 0 W/m2
18:43 -0.4 °C -0.8 °C 1032.8 hPa Calm   4.8 km/h 97% 0.0 mm 0 W/m2
18:48 -0.4 °C -0.8 °C 1032.8 hPa East 1.4 km/h 3.2 km/h 97% 0.0 mm 0 W/m2
18:53 -0.4 °C -0.8 °C 1032.8 hPa East 1.4 km/h 6.4 km/h 97% 0.0 mm 0 W/m2
18:58 -0.4 °C -0.8 °C 1032.8 hPa SE 1.4 km/h 4.8 km/h 97% 0.0 mm 0 W/m2
19:03 -0.5 °C -0.9 °C 1032.8 hPa Calm   3.2 km/h 97% 0.0 mm 0 W/m2
19:08 -0.6 °C -1 °C 1032.8 hPa East 1.4 km/h 3.2 km/h 97% 0.0 mm 0 W/m2
19:13 -0.6 °C -1 °C 1032.8 hPa Calm   4.8 km/h 97% 0.0 mm 0 W/m2
19:18 -0.6 °C -1 °C 1032.8 hPa SE 1.4 km/h 1.6 km/h 97% 0.0 mm 0 W/m2
19:23 -0.6 °C -1 °C 1032.8 hPa Calm   4.8 km/h 97% 0.0 mm 0 W/m2
19:28 -0.6 °C -1 °C 1032.8 hPa Calm     97% 0.0 mm 0 W/m2
19:33 -0.6 °C -1 °C 1032.8 hPa Calm     97% 0.0 mm 0 W/m2
19:38 -0.6 °C -1 °C 1032.8 hPa Calm   1.6 km/h 97% 0.0 mm 0 W/m2
19:43 -0.6 °C -1 °C 1032.8 hPa SW 1.4 km/h 1.6 km/h 97% 0.0 mm 0 W/m2
19:48 -0.6 °C -1 °C 1032.8 hPa Calm     97% 0.0 mm 0 W/m2
19:53 -0.6 °C -1 °C 1032.8 hPa Calm     97% 0.0 mm 0 W/m2
19:58 -0.6 °C -1 °C 1032.8 hPa Calm   1.6 km/h 97% 0.0 mm 0 W/m2
20:03 -0.6 °C -1 °C 1032.8 hPa Calm   3.2 km/h 97% 0.0 mm 0 W/m2
20:08 -0.6 °C -1 °C 1032.8 hPa ENE 1.4 km/h 1.6 km/h 97% 0.0 mm 0 W/m2
20:13 -0.6 °C -1 °C 1032.8 hPa SE 3.2 km/h 3.2 km/h 97% 0.0 mm 0 W/m2
20:18 -0.6 °C -1 °C 1032.8 hPa Calm   3.2 km/h 97% 0.0 mm 0 W/m2
20:23 -0.6 °C -1 °C 1032.8 hPa Calm     97% 0.0 mm 0 W/m2
20:28 -0.6 °C -1 °C 1032.8 hPa SW 3.2 km/h 3.2 km/h 97% 0.0 mm 0 W/m2
20:33 -0.7 °C -1.1 °C 1032.8 hPa WSW 1.4 km/h 3.2 km/h 97% 0.0 mm 0 W/m2
20:38 -0.7 °C -1.1 °C 1032.8 hPa West 1.4 km/h 1.6 km/h 97% 0.0 mm 0 W/m2
20:43 -0.7 °C -1.1 °C 1032.8 hPa Calm   1.6 km/h 97% 0.0 mm 0 W/m2
20:48 -0.7 °C -1.1 °C 1032.8 hPa Calm     97% 0.0 mm 0 W/m2
20:53 -0.7 °C -1.1 °C 1032.8 hPa Calm     97% 0.0 mm 0 W/m2
20:58 -0.7 °C -1.1 °C 1032.8 hPa WNW 4.7 km/h 4.8 km/h 97% 0.0 mm 0 W/m2
21:03 -0.7 °C -1.1 °C 1032.8 hPa West 1.4 km/h 3.2 km/h 97% 0.0 mm 0 W/m2
21:08 -0.7 °C -1.1 °C 1032.8 hPa Calm   1.6 km/h 97% 0.0 mm 0 W/m2
21:13 -0.7 °C -1.1 °C 1032.8 hPa Calm   3.2 km/h 97% 0.0 mm 0 W/m2
21:18 -0.7 °C -1.1 °C 1032.8 hPa WNW 3.2 km/h 3.2 km/h 97% 0.0 mm 0 W/m2
21:23 -0.7 °C -1.1 °C 1032.8 hPa West 3.2 km/h 3.2 km/h 97% 0.0 mm 0 W/m2
21:28 -0.8 °C -1.2 °C 1032.8 hPa WNW 4.7 km/h 4.8 km/h 97% 0.0 mm 0 W/m2
21:33 -0.8 °C -1.2 °C 1032.8 hPa West 1.4 km/h 4.8 km/h 97% 0.0 mm 0 W/m2
21:38 -0.8 °C -1.2 °C 1032.8 hPa WNW 3.2 km/h 6.4 km/h 97% 0.0 mm 0 W/m2
21:43 -0.8 °C -1.2 °C 1032.8 hPa WNW 1.4 km/h 3.2 km/h 97% 0.0 mm 0 W/m2
21:48 -0.8 °C -1.2 °C 1032.8 hPa West 6.4 km/h 6.4 km/h 97% 0.0 mm 0 W/m2
21:53 -0.8 °C -1.2 °C 1032.8 hPa Calm   3.2 km/h 97% 0.0 mm 0 W/m2
21:58 -0.8 °C -1.2 °C 1032.8 hPa WNW 1.4 km/h 3.2 km/h 97% 0.0 mm 0 W/m2
22:03 -0.8 °C -1.2 °C 1032.8 hPa NW 1.4 km/h 3.2 km/h 97% 0.0 mm 0 W/m2
22:08 -0.7 °C -1.1 °C 1032.8 hPa WNW 1.4 km/h 8 km/h 97% 0.0 mm 0 W/m2
22:13 -0.8 °C -1.2 °C 1032.8 hPa NW 3.2 km/h 4.8 km/h 97% 0.0 mm 0 W/m2
22:18 -0.8 °C -1.2 °C 1032.8 hPa WNW 3.2 km/h 6.4 km/h 97% 0.0 mm 0 W/m2
22:23 -0.8 °C -1.2 °C 1032.8 hPa West 1.4 km/h 4.8 km/h 97% 0.0 mm 0 W/m2
22:28 -0.8 °C -1.2 °C 1032.8 hPa West 1.4 km/h 3.2 km/h 97% 0.0 mm 0 W/m2
22:33 -0.8 °C -1.2 °C 1032.8 hPa Calm   3.2 km/h 97% 0.0 mm 0 W/m2
22:38 -0.8 °C -1.2 °C 1033.2 hPa West 3.2 km/h 4.8 km/h 97% 0.0 mm 0 W/m2
22:43 -0.9 °C -1.3 °C 1033.2 hPa WSW 4.7 km/h 6.4 km/h 97% 0.0 mm 0 W/m2
22:48 -0.9 °C -1.3 °C 1032.8 hPa WNW 1.4 km/h 4.8 km/h 97% 0.0 mm 0 W/m2
22:53 -0.9 °C -1.3 °C 1032.8 hPa Calm   3.2 km/h 97% 0.0 mm 0 W/m2
22:58 -0.9 °C -1.3 °C 1032.8 hPa West 1.4 km/h 4.8 km/h 97% 0.0 mm 0 W/m2
23:03 -0.9 °C -1.3 °C 1032.8 hPa West 4.7 km/h 4.8 km/h 97% 0.0 mm 0 W/m2
23:08 -0.9 °C -1.3 °C 1032.8 hPa West 3.2 km/h 4.8 km/h 97% 0.0 mm 0 W/m2
23:13 -0.9 °C -1.3 °C 1032.8 hPa West 1.4 km/h 4.8 km/h 97% 0.0 mm 0 W/m2
23:18 -0.9 °C -1.3 °C 1032.8 hPa West 4.7 km/h 6.4 km/h 97% 0.0 mm 0 W/m2
23:23 -0.9 °C -1.3 °C 1032.8 hPa West 3.2 km/h 6.4 km/h 97% 0.0 mm 0 W/m2
23:28 -0.9 °C -1.3 °C 1032.8 hPa WSW 4.7 km/h 6.4 km/h 97% 0.0 mm 0 W/m2
23:33 -1 °C -1.4 °C 1032.8 hPa West 3.2 km/h 6.4 km/h 97% 0.0 mm 0 W/m2
23:38 -1.1 °C -1.5 °C 1032.8 hPa West 1.4 km/h 3.2 km/h 97% 0.0 mm 0 W/m2
23:43 -1.1 °C -1.5 °C 1032.8 hPa West 3.2 km/h 4.8 km/h 97% 0.0 mm 0 W/m2
23:48 -1.1 °C -1.5 °C 1032.8 hPa WNW 1.4 km/h 4.8 km/h 97% 0.0 mm 0 W/m2
23:53 -1.1 °C -1.5 °C 1032.8 hPa West 3.2 km/h 4.8 km/h 97% 0.0 mm 0 W/m2
23:58 -1.1 °C -1.5 °C 1032.8 hPa West 3.2 km/h 4.8 km/h 97% 0.0 mm 0 W/m2
Juneau County Weather
Compliments of Weather Underground - 4 mb